createdAt,value
2022-11-17T00:01:22.002Z,6.97
2022-11-17T00:03:50.210Z,6.95
2022-11-17T00:06:20.422Z,6.75
2022-11-17T00:08:47.868Z,5.90
2022-11-17T00:11:14.899Z,6.22
2022-11-17T00:14:04.862Z,7.18
2022-11-17T00:16:31.447Z,6.78
2022-11-17T00:19:16.705Z,6.53
2022-11-17T00:21:43.343Z,6.28
2022-11-17T00:24:10.060Z,6.72
2022-11-17T00:26:56.741Z,7.10
2022-11-17T00:29:23.398Z,6.75
2022-11-17T00:32:19.206Z,7.75
2022-11-17T00:34:45.981Z,6.70
2022-11-17T00:37:14.683Z,6.72
2022-11-17T00:43:27.946Z,6.30
2022-11-17T00:45:54.540Z,6.00
2022-11-17T00:48:21.128Z,6.00
2022-11-17T00:50:47.730Z,6.50
2022-11-17T00:53:14.315Z,7.10
2022-11-17T00:55:42.888Z,6.10
2022-11-17T00:58:09.582Z,7.03
2022-11-17T01:00:36.168Z,6.93
2022-11-17T01:03:02.828Z,6.45
2022-11-17T01:05:33.060Z,6.43
2022-11-17T01:07:59.916Z,5.63
2022-11-17T01:10:26.486Z,6.05
2022-11-17T01:12:53.110Z,6.28
2022-11-17T01:15:19.687Z,5.07
2022-11-17T01:17:46.320Z,9.75
2022-11-17T01:20:13.021Z,5.20
2022-11-17T01:22:39.681Z,5.25
2022-11-17T01:25:06.702Z,5.35
2022-11-17T01:27:33.323Z,5.55
2022-11-17T01:29:59.911Z,6.07
2022-11-17T01:32:26.621Z,5.85
2022-11-17T01:34:53.251Z,5.78
2022-11-17T01:37:19.895Z,5.85
2022-11-17T01:39:47.046Z,6.68
2022-11-17T01:42:22.492Z,5.43
2022-11-17T01:45:04.184Z,6.28
2022-11-17T01:48:04.665Z,5.32
2022-11-17T01:50:36.215Z,5.60
2022-11-17T01:53:07.692Z,5.35
2022-11-17T01:55:38.674Z,5.18
2022-11-17T01:58:15.442Z,5.40
2022-11-17T02:00:42.064Z,5.82
2022-11-17T02:03:09.337Z,5.10
2022-11-17T02:05:55.106Z,5.30
2022-11-17T02:08:33.423Z,5.38
2022-11-17T02:11:02.574Z,5.78
2022-11-17T02:13:29.249Z,5.22
2022-11-17T02:15:56.005Z,5.57
2022-11-17T02:18:22.627Z,5.45
2022-11-17T02:21:07.296Z,6.13
2022-11-17T02:23:43.248Z,5.57
2022-11-17T02:26:37.269Z,5.65
2022-11-17T02:29:17.102Z,6.05
2022-11-17T02:32:26.333Z,5.22
2022-11-17T02:35:19.433Z,5.43
2022-11-17T02:38:17.107Z,5.47
2022-11-17T02:41:19.328Z,5.60
2022-11-17T02:44:08.512Z,5.43
2022-11-17T02:46:43.334Z,5.45
2022-11-17T02:49:53.389Z,6.13
2022-11-17T02:52:21.354Z,6.35
2022-11-17T02:54:47.929Z,6.50
2022-11-17T02:57:38.369Z,5.55
2022-11-17T03:00:10.556Z,6.18
2022-11-17T03:03:04.766Z,5.88
2022-11-17T03:05:56.596Z,7.03
2022-11-17T03:08:37.129Z,5.80
2022-11-17T03:11:06.259Z,6.13
2022-11-17T03:14:00.842Z,6.25
2022-11-17T03:16:54.049Z,5.60
2022-11-17T03:19:37.830Z,5.50
2022-11-17T03:22:12.687Z,6.35
2022-11-17T03:24:41.842Z,10.75
2022-11-17T03:27:20.814Z,6.43
2022-11-17T03:29:52.421Z,5.65
2022-11-17T03:32:21.716Z,6.28
2022-11-17T03:34:59.033Z,5.32
2022-11-17T03:37:30.163Z,6.18
2022-11-17T03:40:03.089Z,5.68
2022-11-17T03:42:32.149Z,7.43
2022-11-17T03:45:04.311Z,7.00
2022-11-17T03:47:32.583Z,6.53
2022-11-17T03:50:22.788Z,7.05
2022-11-17T03:52:49.917Z,6.10
2022-11-17T03:55:17.056Z,6.85
2022-11-17T03:57:50.477Z,7.07
2022-11-17T04:00:19.254Z,6.88
2022-11-17T04:02:47.923Z,7.53
2022-11-17T04:05:16.789Z,7.32
2022-11-17T04:07:47.575Z,7.53
2022-11-17T04:10:19.646Z,7.90
2022-11-17T04:13:06.900Z,7.00
2022-11-17T04:15:52.696Z,7.07
2022-11-17T04:18:20.201Z,6.25
2022-11-17T04:20:54.164Z,7.10
2022-11-17T04:23:20.842Z,6.75
2022-11-17T04:26:11.562Z,7.72
2022-11-17T04:28:41.993Z,7.28
2022-11-17T04:31:28.103Z,7.70
2022-11-17T04:34:03.245Z,6.53
2022-11-17T04:36:43.791Z,6.70
2022-11-17T04:39:12.266Z,7.10
2022-11-17T04:41:54.543Z,7.70
2022-11-17T04:44:26.966Z,7.05
2022-11-17T04:46:54.720Z,6.55
2022-11-17T04:49:22.667Z,7.28
2022-11-17T04:51:50.372Z,7.00
2022-11-17T04:54:19.856Z,7.07
2022-11-17T04:56:47.975Z,7.38
2022-11-17T04:59:15.025Z,7.18
2022-11-17T05:01:41.871Z,7.32
2022-11-17T05:04:13.675Z,7.38
2022-11-17T05:06:44.718Z,6.95
2022-11-17T05:09:16.519Z,6.95
2022-11-17T05:12:01.943Z,6.78
2022-11-17T05:14:29.509Z,5.50
2022-11-17T05:17:09.503Z,6.10
2022-11-17T05:19:39.986Z,6.82
2022-11-17T05:22:28.045Z,6.18
2022-11-17T05:24:55.477Z,6.57
2022-11-17T05:27:24.167Z,5.65
2022-11-17T05:29:50.807Z,4.70
2022-11-17T05:32:17.748Z,5.43
2022-11-17T05:34:44.367Z,4.47
2022-11-17T05:37:11.034Z,4.88
2022-11-17T05:39:37.622Z,4.50
2022-11-17T05:42:04.812Z,6.80
2022-11-17T05:44:31.406Z,5.68
2022-11-17T05:46:58.091Z,6.32
2022-11-17T05:49:24.700Z,5.45
2022-11-17T05:51:52.960Z,5.82
2022-11-17T05:54:20.426Z,5.85
2022-11-17T05:56:53.560Z,4.78
2022-11-17T05:59:28.760Z,5.22
2022-11-17T06:02:04.570Z,4.95
2022-11-17T06:04:31.552Z,5.13
2022-11-17T06:07:00.438Z,5.50
2022-11-17T06:09:39.032Z,6.10
2022-11-17T06:12:06.536Z,6.75
2022-11-17T06:14:35.368Z,7.10
2022-11-17T06:17:10.713Z,7.38
2022-11-17T06:19:43.999Z,6.68
2022-11-17T06:22:12.577Z,6.78
2022-11-17T06:24:41.970Z,6.88
2022-11-17T06:27:09.745Z,7.28
2022-11-17T06:29:42.445Z,8.38
2022-11-17T06:32:11.250Z,7.20
2022-11-17T06:34:38.157Z,9.02
2022-11-17T06:37:04.793Z,7.28
2022-11-17T06:39:31.446Z,7.10
2022-11-17T06:41:58.064Z,8.13
2022-11-17T06:44:24.654Z,6.85
2022-11-17T06:46:51.348Z,6.15
2022-11-17T06:49:17.981Z,7.60
2022-11-17T06:51:45.525Z,8.07
2022-11-17T06:54:14.336Z,10.60
2022-11-17T06:56:40.964Z,9.20
2022-11-17T06:59:07.553Z,7.97
2022-11-17T07:01:34.178Z,8.90
2022-11-17T07:04:00.773Z,9.95
2022-11-17T07:06:27.437Z,9.10
2022-11-17T07:08:54.379Z,8.10
2022-11-17T07:11:20.979Z,7.78
2022-11-17T07:13:47.568Z,7.47
2022-11-17T07:16:22.857Z,8.80
2022-11-17T07:18:50.012Z,8.20
2022-11-17T07:21:17.947Z,7.25
2022-11-17T07:23:47.341Z,7.80
2022-11-17T07:26:14.453Z,7.05
2022-11-17T07:28:41.249Z,6.10
2022-11-17T07:31:09.162Z,6.25
2022-11-17T07:33:36.590Z,6.55
2022-11-17T07:36:05.938Z,5.97
2022-11-17T07:38:34.316Z,6.22
2022-11-17T07:41:01.250Z,5.18
2022-11-17T07:43:28.130Z,5.03
2022-11-17T07:45:55.052Z,4.38
2022-11-17T07:48:21.785Z,3.92
2022-11-17T07:50:48.530Z,4.18
2022-11-17T07:53:15.486Z,4.68
2022-11-17T07:55:42.199Z,4.30
2022-11-17T07:58:08.801Z,4.18
2022-11-17T08:00:35.549Z,3.80
2022-11-17T08:03:04.250Z,3.53
2022-11-17T08:05:37.056Z,3.38
2022-11-17T08:08:08.100Z,4.70
2022-11-17T08:10:34.734Z,3.75
2022-11-17T08:13:01.474Z,3.67
2022-11-17T08:15:29.563Z,4.03
2022-11-17T08:17:58.537Z,5.22
2022-11-17T08:20:26.508Z,3.63
2022-11-17T08:22:53.527Z,3.38
2022-11-17T08:25:21.554Z,4.28
2022-11-17T08:27:52.128Z,3.42
2022-11-17T08:30:20.244Z,4.22
2022-11-17T08:32:49.169Z,4.03
2022-11-17T08:35:17.100Z,4.88
2022-11-17T08:37:43.769Z,4.00
2022-11-17T08:40:11.826Z,4.25
2022-11-17T08:42:38.644Z,3.80
2022-11-17T08:45:06.592Z,4.07
2022-11-17T08:47:34.124Z,5.82
2022-11-17T08:50:00.748Z,3.38
2022-11-17T08:52:28.362Z,3.50
2022-11-17T08:54:55.182Z,4.38
2022-11-17T08:57:22.088Z,3.83
2022-11-17T08:59:49.447Z,3.45
2022-11-17T09:02:16.813Z,2.80
2022-11-17T09:04:45.888Z,3.00
2022-11-17T09:07:12.682Z,3.50
2022-11-17T09:09:39.440Z,4.10
2022-11-17T09:12:06.605Z,3.53
2022-11-17T09:14:33.348Z,3.47
2022-11-17T09:17:00.007Z,3.40
2022-11-17T09:19:26.931Z,4.20
2022-11-17T09:21:54.014Z,4.35
2022-11-17T09:24:20.629Z,4.85
2022-11-17T09:26:47.219Z,3.30
2022-11-17T09:29:14.211Z,3.33
2022-11-17T09:31:41.126Z,3.35
2022-11-17T09:34:08.016Z,4.05
2022-11-17T09:36:34.903Z,2.80
2022-11-17T09:39:01.512Z,3.28
2022-11-17T09:41:33.334Z,3.42
2022-11-17T09:44:33.191Z,4.60
2022-11-17T09:47:37.781Z,3.88
2022-11-17T09:50:27.147Z,3.70
2022-11-17T09:53:09.580Z,5.00
2022-11-17T09:55:37.576Z,4.55
2022-11-17T09:58:19.333Z,4.90
2022-11-17T10:00:48.884Z,5.95
2022-11-17T10:03:30.727Z,5.28
2022-11-17T10:05:59.319Z,4.97
2022-11-17T10:08:40.704Z,5.30
2022-11-17T10:11:34.970Z,4.35
2022-11-17T10:14:15.375Z,3.97
2022-11-17T10:16:53.049Z,4.75
2022-11-17T10:19:22.549Z,3.22
2022-11-17T10:21:53.442Z,3.55
2022-11-17T10:24:50.372Z,3.58
2022-11-17T10:27:27.347Z,4.43
2022-11-17T10:30:06.971Z,3.45
2022-11-17T10:35:30.639Z,3.63
2022-11-17T10:38:09.062Z,3.97
2022-11-17T10:40:38.958Z,2.88
2022-11-17T10:43:15.135Z,3.20
2022-11-17T10:46:16.943Z,3.50
2022-11-17T10:49:01.386Z,3.72
2022-11-17T10:51:32.433Z,2.95
2022-11-17T10:54:04.878Z,3.42
2022-11-17T10:56:38.927Z,3.03
2022-11-17T10:59:16.479Z,3.45
2022-11-17T11:01:45.772Z,6.10
2022-11-17T11:04:29.434Z,3.22
2022-11-17T11:07:17.091Z,3.85
2022-11-17T11:09:58.454Z,3.47
2022-11-17T11:12:36.275Z,3.10
2022-11-17T11:15:05.004Z,2.88
2022-11-17T11:17:31.704Z,2.55
2022-11-17T11:19:59.443Z,2.63
2022-11-17T11:22:45.923Z,3.00
2022-11-17T11:25:27.042Z,2.15
2022-11-17T11:28:35.226Z,2.92
2022-11-17T11:31:40.003Z,2.28
2022-11-17T11:34:18.777Z,2.15
2022-11-17T11:36:53.352Z,2.90
2022-11-17T11:39:35.798Z,2.30
2022-11-17T11:42:19.941Z,2.50
2022-11-17T11:45:07.174Z,2.80
2022-11-17T11:47:43.021Z,2.05
2022-11-17T11:50:15.584Z,3.30
2022-11-17T11:52:47.776Z,3.25
2022-11-17T11:55:20.777Z,2.80
2022-11-17T11:57:54.211Z,2.80
2022-11-17T12:00:21.121Z,3.28
2022-11-17T12:03:10.647Z,3.03
2022-11-17T12:05:39.789Z,3.08
2022-11-17T12:08:13.932Z,2.35
2022-11-17T12:10:53.449Z,2.25
2022-11-17T12:13:23.285Z,2.25
2022-11-17T12:15:50.391Z,2.50
2022-11-17T12:18:17.046Z,2.70
2022-11-17T12:21:05.258Z,2.92
2022-11-17T12:23:48.953Z,3.35
2022-11-17T12:26:25.346Z,3.50
2022-11-17T12:29:20.593Z,2.03
2022-11-17T12:31:59.111Z,3.17
2022-11-17T12:34:37.073Z,2.47
2022-11-17T12:37:15.710Z,2.63
2022-11-17T12:40:00.400Z,3.40
2022-11-17T12:42:28.687Z,2.35
2022-11-17T12:45:00.304Z,2.63
2022-11-17T12:47:30.139Z,3.53
2022-11-17T12:50:02.835Z,2.50
2022-11-17T12:52:58.845Z,2.40
2022-11-17T12:55:28.568Z,3.03
2022-11-17T13:00:25.106Z,2.03
2022-11-17T13:03:02.715Z,1.80
2022-11-17T13:05:30.371Z,1.70
2022-11-17T13:08:15.101Z,2.35
2022-11-17T13:10:42.002Z,2.17
2022-11-17T13:13:20.984Z,1.65
2022-11-17T13:15:59.200Z,2.58
2022-11-17T13:18:30.526Z,1.33
2022-11-17T13:20:58.300Z,2.25
2022-11-17T13:23:27.722Z,1.80
2022-11-17T13:26:16.324Z,1.52
2022-11-17T13:28:44.071Z,1.60
2022-11-17T13:31:18.456Z,1.83
2022-11-17T13:34:06.092Z,1.48
2022-11-17T13:36:33.563Z,1.60
2022-11-17T13:39:00.928Z,1.70
2022-11-17T13:41:38.211Z,1.15
2022-11-17T13:44:08.522Z,1.27
2022-11-17T13:46:36.322Z,1.52
2022-11-17T13:49:39.216Z,1.92
2022-11-17T13:52:14.841Z,1.13
2022-11-17T13:54:44.549Z,2.33
2022-11-17T13:59:45.047Z,2.67
2022-11-17T14:02:20.751Z,1.77
2022-11-17T14:05:16.748Z,1.50
2022-11-17T14:07:44.966Z,2.42
2022-11-17T14:10:20.710Z,2.38
2022-11-17T14:12:48.262Z,2.13
2022-11-17T14:15:20.848Z,1.98
2022-11-17T14:17:55.578Z,1.50
2022-11-17T14:20:25.379Z,2.05
2022-11-17T14:23:13.536Z,2.13
2022-11-17T14:25:43.109Z,1.55
2022-11-17T14:28:23.356Z,2.25
2022-11-17T14:30:55.128Z,2.22
2022-11-17T14:33:23.031Z,1.75
2022-11-17T14:35:58.538Z,2.30
2022-11-17T14:38:25.473Z,2.55
2022-11-17T14:40:53.546Z,2.08
2022-11-17T14:43:22.353Z,2.35
2022-11-17T14:45:50.260Z,3.70
2022-11-17T14:48:19.339Z,2.13
2022-11-17T14:50:47.056Z,2.08
2022-11-17T14:53:13.805Z,2.25
2022-11-17T14:55:40.421Z,2.00
2022-11-17T14:58:07.202Z,2.40
2022-11-17T15:00:33.774Z,1.67
2022-11-17T15:03:00.857Z,2.13
2022-11-17T15:05:27.511Z,1.30
2022-11-17T15:07:56.604Z,1.35
2022-11-17T15:10:23.295Z,1.88
2022-11-17T15:12:49.866Z,1.92
2022-11-17T15:15:17.773Z,1.77
2022-11-17T15:17:44.399Z,1.58
2022-11-17T15:20:11.728Z,3.45
2022-11-17T15:22:38.362Z,1.75
2022-11-17T15:25:05.465Z,2.75
2022-11-17T15:27:32.063Z,1.92
2022-11-17T15:29:58.668Z,3.25
2022-11-17T15:32:25.355Z,1.83
2022-11-17T15:34:51.979Z,2.03
2022-11-17T15:37:18.672Z,2.30
2022-11-17T15:39:45.353Z,2.00
2022-11-17T15:42:11.992Z,2.97
2022-11-17T15:44:38.641Z,2.90
2022-11-17T15:47:06.124Z,2.25
2022-11-17T15:49:32.782Z,2.25
2022-11-17T15:51:59.445Z,2.95
2022-11-17T15:54:26.319Z,2.40
2022-11-17T15:56:52.990Z,3.78
2022-11-17T15:59:20.027Z,3.58
2022-11-17T16:01:47.176Z,3.47
2022-11-17T16:04:18.128Z,3.63
2022-11-17T16:06:46.266Z,3.28
2022-11-17T16:09:13.457Z,3.20
2022-11-17T16:11:40.848Z,3.55
2022-11-17T16:14:07.753Z,3.58
2022-11-17T16:16:37.646Z,3.30
2022-11-17T16:19:05.710Z,3.63
2022-11-17T16:21:32.983Z,4.28
2022-11-17T16:24:00.804Z,4.90
2022-11-17T16:26:28.804Z,4.88
2022-11-17T16:28:59.764Z,3.83
2022-11-17T16:31:28.660Z,6.10
2022-11-17T16:34:06.340Z,5.13
2022-11-17T16:36:37.205Z,4.03
2022-11-17T16:39:06.239Z,3.65
2022-11-17T16:41:35.772Z,2.88
2022-11-17T16:44:06.200Z,3.20
2022-11-17T16:46:32.998Z,3.03
2022-11-17T16:49:05.113Z,4.25
2022-11-17T16:51:32.477Z,4.63
2022-11-17T16:54:04.866Z,4.55
2022-11-17T16:56:33.389Z,4.55
2022-11-17T16:59:00.540Z,5.03
2022-11-17T17:01:33.068Z,3.45
2022-11-17T17:04:02.061Z,3.63
2022-11-17T17:06:29.341Z,4.53
2022-11-17T17:08:58.524Z,4.72
2022-11-17T17:11:27.283Z,5.10
2022-11-17T17:13:54.066Z,3.83
2022-11-17T17:16:20.935Z,3.28
2022-11-17T17:18:47.679Z,3.80
2022-11-17T17:21:17.471Z,2.58
2022-11-17T17:23:45.607Z,3.45
2022-11-17T17:26:16.659Z,3.83
2022-11-17T17:28:45.110Z,2.70
2022-11-17T17:31:21.020Z,3.50
2022-11-17T17:33:48.690Z,3.65
2022-11-17T17:36:35.174Z,2.97
2022-11-17T17:39:02.707Z,3.33
2022-11-17T17:41:31.497Z,3.28
2022-11-17T17:44:00.577Z,4.63
2022-11-17T17:46:29.729Z,4.43
2022-11-17T17:48:56.623Z,5.50
2022-11-17T17:51:25.735Z,4.72
2022-11-17T17:53:57.992Z,4.75
2022-11-17T17:56:25.247Z,4.43
2022-11-17T17:58:55.363Z,7.68
2022-11-17T18:01:24.237Z,6.55
2022-11-17T18:03:53.605Z,5.88
2022-11-17T18:06:22.268Z,4.65
2022-11-17T18:08:49.586Z,4.65
2022-11-17T18:11:19.447Z,6.32
2022-11-17T18:13:49.017Z,5.47
2022-11-17T18:16:19.255Z,5.22
2022-11-17T18:18:46.256Z,6.28
2022-11-17T18:21:18.258Z,5.82
2022-11-17T18:23:45.096Z,5.18
2022-11-17T18:26:19.547Z,6.43
2022-11-17T18:28:54.358Z,6.53
2022-11-17T18:31:23.068Z,6.40
2022-11-17T18:34:01.518Z,5.88
2022-11-17T18:36:29.115Z,7.15
2022-11-17T18:38:57.514Z,7.65
2022-11-17T18:41:25.646Z,8.43
2022-11-17T18:43:52.463Z,8.65
2022-11-17T18:46:21.491Z,9.43
2022-11-17T18:48:50.818Z,8.02
2022-11-17T18:51:22.635Z,6.88
2022-11-17T18:53:51.553Z,6.63
2022-11-17T18:56:21.050Z,7.93
2022-11-17T18:58:47.773Z,10.95
2022-11-17T19:01:19.800Z,9.82
2022-11-17T19:03:49.004Z,8.95
2022-11-17T19:06:17.274Z,9.85
2022-11-17T19:08:44.557Z,10.10
2022-11-17T19:11:12.248Z,11.77
2022-11-17T19:13:40.764Z,16.92
2022-11-17T19:16:13.827Z,10.25
2022-11-17T19:18:41.625Z,12.02
2022-11-17T19:21:14.110Z,12.35
2022-11-17T19:23:45.386Z,11.80
2022-11-17T19:26:19.127Z,15.82
2022-11-17T19:28:45.932Z,11.35
2022-11-17T19:31:16.909Z,15.35
2022-11-17T19:33:44.985Z,12.52
2022-11-17T19:36:14.095Z,20.70
2022-11-17T19:38:42.904Z,20.15
2022-11-17T19:41:12.319Z,16.97
2022-11-17T19:43:44.892Z,10.85
2022-11-17T19:46:17.118Z,9.98
2022-11-17T19:48:44.837Z,11.50
2022-11-17T19:51:31.758Z,9.18
2022-11-17T19:54:03.426Z,9.45
2022-11-17T19:56:30.261Z,9.05
2022-11-17T19:58:57.234Z,10.30
2022-11-17T20:01:26.503Z,9.90
2022-11-17T20:03:53.973Z,10.13
2022-11-17T20:06:23.650Z,9.80
2022-11-17T20:08:50.431Z,12.05
2022-11-17T20:11:19.822Z,11.45
2022-11-17T20:13:47.094Z,11.43
2022-11-17T20:16:25.154Z,12.65
2022-11-17T20:18:54.235Z,11.45
2022-11-17T20:21:21.153Z,11.20
2022-11-17T20:23:48.435Z,9.75
2022-11-17T20:26:27.090Z,13.25
2022-11-17T20:28:54.391Z,12.98
2022-11-17T20:31:32.622Z,10.30
2022-11-17T20:34:00.992Z,8.80
2022-11-17T20:36:29.736Z,11.15
2022-11-17T20:38:58.573Z,10.45
2022-11-17T20:41:25.479Z,7.83
2022-11-17T20:43:54.402Z,6.90
2022-11-17T20:46:22.022Z,8.40
2022-11-17T20:48:49.252Z,7.22
2022-11-17T20:51:20.849Z,6.53
2022-11-17T20:53:47.818Z,6.80
2022-11-17T20:56:18.760Z,7.03
2022-11-17T20:58:45.772Z,6.65
2022-11-17T21:01:18.392Z,6.20
2022-11-17T21:03:45.673Z,7.53
2022-11-17T21:06:13.361Z,5.32
2022-11-17T21:08:42.060Z,6.30
2022-11-17T21:11:11.762Z,6.28
2022-11-17T21:13:38.763Z,5.50
2022-11-17T21:16:12.658Z,6.38
2022-11-17T21:18:45.828Z,6.43
2022-11-17T21:21:12.960Z,7.45
2022-11-17T21:23:40.602Z,4.97
2022-11-17T21:26:16.980Z,5.13
2022-11-17T21:28:43.644Z,5.85
2022-11-17T21:31:12.787Z,4.75
2022-11-17T21:33:40.291Z,4.95
2022-11-17T21:36:12.252Z,5.55
2022-11-17T21:38:39.347Z,5.88
2022-11-17T21:41:11.253Z,7.57
2022-11-17T21:43:39.722Z,6.43
2022-11-17T21:46:12.443Z,4.40
2022-11-17T21:48:39.284Z,27.08
2022-11-17T21:51:08.064Z,21.80
2022-11-17T21:53:34.989Z,7.97
2022-11-17T21:56:06.131Z,5.85
2022-11-17T21:58:33.493Z,8.15
2022-11-17T22:01:11.095Z,6.80
2022-11-17T22:03:39.108Z,6.18
2022-11-17T22:06:11.017Z,5.78
2022-11-17T22:08:39.577Z,4.97
2022-11-17T22:11:08.921Z,5.15
2022-11-17T22:13:35.833Z,6.53
2022-11-17T22:16:13.657Z,5.78
2022-11-17T22:18:41.553Z,6.30
2022-11-17T22:21:09.049Z,6.20
2022-11-17T22:23:36.024Z,7.15
2022-11-17T22:26:06.208Z,6.60
2022-11-17T22:28:33.097Z,6.75
2022-11-17T22:30:59.823Z,6.43
2022-11-17T22:33:26.568Z,6.50
2022-11-17T22:35:53.419Z,7.53
2022-11-17T22:38:20.047Z,6.78
2022-11-17T22:40:46.692Z,5.88
2022-11-17T22:43:15.465Z,10.10
2022-11-17T22:45:42.798Z,7.95
2022-11-17T22:48:09.572Z,7.78
2022-11-17T22:50:36.353Z,7.25
2022-11-17T22:53:03.335Z,8.35
2022-11-17T22:55:30.201Z,6.28
2022-11-17T22:57:56.875Z,6.50
2022-11-17T23:00:23.886Z,6.72
2022-11-17T23:02:50.576Z,8.20
2022-11-17T23:05:17.562Z,8.60
2022-11-17T23:07:44.411Z,9.65
2022-11-17T23:10:12.183Z,10.63
2022-11-17T23:12:39.629Z,10.23
2022-11-17T23:15:07.303Z,11.57
2022-11-17T23:17:34.682Z,12.18
2022-11-17T23:20:01.453Z,11.38
2022-11-17T23:22:28.034Z,11.52
2022-11-17T23:24:54.787Z,10.25
2022-11-17T23:27:21.506Z,12.45
2022-11-17T23:29:48.156Z,11.10
2022-11-17T23:32:14.904Z,12.23
2022-11-17T23:34:41.630Z,13.77
2022-11-17T23:37:08.229Z,14.20
2022-11-17T23:39:34.911Z,17.05
2022-11-17T23:42:01.688Z,16.30
2022-11-17T23:44:28.391Z,15.13
2022-11-17T23:46:55.332Z,17.33
2022-11-17T23:49:22.082Z,16.83
2022-11-17T23:51:48.832Z,16.08
2022-11-17T23:54:15.672Z,18.58
2022-11-17T23:56:42.378Z,18.52
2022-11-17T23:59:09.096Z,22.70
